createdAt,value
2018-11-11T00:04:54.176Z,78.70
2018-11-11T00:07:23.142Z,76.80
2018-11-11T00:09:51.715Z,74.93
2018-11-11T00:12:24.201Z,80.10
2018-11-11T00:15:00.914Z,72.10
2018-11-11T00:17:31.433Z,74.10
2018-11-11T00:20:05.806Z,78.90
2018-11-11T00:22:35.129Z,81.20
2018-11-11T00:25:08.268Z,76.57
2018-11-11T00:30:20.779Z,79.13
2018-11-11T00:38:23.779Z,82.83
2018-11-11T00:40:58.376Z,80.60
2018-11-11T00:43:32.007Z,84.10
2018-11-11T00:46:03.806Z,80.63
2018-11-11T00:48:43.311Z,81.63
2018-11-11T00:51:24.894Z,77.63
2018-11-11T00:56:32.621Z,79.50
2018-11-11T00:59:14.085Z,79.40
2018-11-11T01:01:48.096Z,84.20
2018-11-11T01:04:21.578Z,84.97
2018-11-11T01:06:59.151Z,86.07
2018-11-11T01:09:47.725Z,89.90
2018-11-11T01:14:58.122Z,91.60
2018-11-11T01:17:28.708Z,88.27
2018-11-11T01:19:59.920Z,88.70
2018-11-11T01:22:30.689Z,89.83
2018-11-11T01:25:00.085Z,93.80
2018-11-11T01:27:29.667Z,94.93
2018-11-11T01:30:00.242Z,90.97
2018-11-11T01:32:29.735Z,90.80
2018-11-11T01:34:58.554Z,86.53
2018-11-11T01:37:39.487Z,87.20
2018-11-11T01:40:09.646Z,85.97
2018-11-11T01:42:41.153Z,94.27
2018-11-11T01:45:18.691Z,87.10
2018-11-11T01:47:48.723Z,89.60
2018-11-11T01:50:22.982Z,88.97
2018-11-11T01:52:53.756Z,88.27
2018-11-11T01:55:23.627Z,86.50
2018-11-11T01:57:52.998Z,89.57
2018-11-11T02:00:22.263Z,91.93
2018-11-11T02:02:52.632Z,94.07
2018-11-11T02:05:31.044Z,88.23
2018-11-11T02:08:00.507Z,85.33
2018-11-11T02:10:33.567Z,92.40
2018-11-11T02:13:07.626Z,84.67
2018-11-11T02:15:40.284Z,85.70
2018-11-11T02:18:09.785Z,89.80
2018-11-11T02:20:38.574Z,99.70
2018-11-11T02:23:07.899Z,94.33
2018-11-11T02:25:43.084Z,99.13
2018-11-11T02:28:20.634Z,99.53
2018-11-11T02:30:49.983Z,92.77
2018-11-11T02:33:18.901Z,97.30
2018-11-11T02:35:49.435Z,93.60
2018-11-11T02:38:22.803Z,98.20
2018-11-11T02:40:53.956Z,103.73
2018-11-11T02:43:24.995Z,98.90
2018-11-11T02:45:56.998Z,100.63
2018-11-11T02:48:34.152Z,106.60
2018-11-11T02:51:03.727Z,108.70
2018-11-11T02:53:33.987Z,105.43
2018-11-11T02:56:03.328Z,109.83
2018-11-11T02:58:32.621Z,105.87
2018-11-11T03:01:01.782Z,106.17
2018-11-11T03:03:30.400Z,103.30
2018-11-11T03:05:58.971Z,104.03
2018-11-11T03:08:29.267Z,101.83
2018-11-11T03:10:59.496Z,103.93
2018-11-11T03:13:34.007Z,102.27
2018-11-11T03:16:05.108Z,104.87
2018-11-11T03:18:35.228Z,96.07
2018-11-11T03:21:05.945Z,101.17
2018-11-11T03:23:35.139Z,103.47
2018-11-11T03:26:05.023Z,104.70
2018-11-11T03:28:34.787Z,99.03
2018-11-11T03:31:07.637Z,103.00
2018-11-11T03:33:36.176Z,101.40
2018-11-11T03:36:10.042Z,98.87
2018-11-11T03:38:59.050Z,100.43
2018-11-11T03:41:31.565Z,101.93
2018-11-11T03:44:07.503Z,102.17
2018-11-11T03:46:36.841Z,107.30
2018-11-11T03:49:09.647Z,103.97
2018-11-11T03:51:40.852Z,97.73
2018-11-11T03:54:15.934Z,101.77
2018-11-11T03:56:46.444Z,103.70
2018-11-11T03:59:20.777Z,98.70
2018-11-11T04:02:02.468Z,107.70
2018-11-11T04:04:32.068Z,103.30
2018-11-11T04:07:03.338Z,107.13
2018-11-11T04:09:33.909Z,112.33
2018-11-11T04:12:03.757Z,101.33
2018-11-11T04:14:33.498Z,101.10
2018-11-11T04:17:03.759Z,104.63
2018-11-11T04:19:37.415Z,103.60
2018-11-11T04:22:11.598Z,92.60
2018-11-11T04:24:49.600Z,94.20
2018-11-11T04:27:19.951Z,101.10
2018-11-11T04:29:52.865Z,101.37
2018-11-11T04:32:27.162Z,100.67
2018-11-11T04:37:32.853Z,112.13
2018-11-11T04:40:01.941Z,105.27
2018-11-11T04:42:32.123Z,113.10
2018-11-11T04:45:01.472Z,104.03
2018-11-11T04:47:30.328Z,102.93
2018-11-11T04:49:59.523Z,103.90
2018-11-11T04:52:29.800Z,97.50
2018-11-11T04:55:02.492Z,101.23
2018-11-11T04:57:32.959Z,101.30
2018-11-11T05:00:18.011Z,103.50
2018-11-11T05:02:48.588Z,105.27
2018-11-11T05:05:18.223Z,98.87
2018-11-11T05:07:46.986Z,106.97
2018-11-11T05:13:01.363Z,99.77
2018-11-11T05:15:30.605Z,101.27
2018-11-11T05:18:05.081Z,108.97
2018-11-11T05:20:36.255Z,114.00
2018-11-11T05:23:06.906Z,103.63
2018-11-11T05:25:39.504Z,106.20
2018-11-11T05:28:08.726Z,112.87
2018-11-11T05:30:44.105Z,106.70
2018-11-11T05:33:13.931Z,100.07
2018-11-11T05:35:44.476Z,106.50
2018-11-11T05:38:15.170Z,112.73
2018-11-11T05:40:47.145Z,112.13
2018-11-11T05:43:16.709Z,114.40
2018-11-11T05:45:51.693Z,112.03
2018-11-11T05:48:20.976Z,125.83
2018-11-11T05:50:49.817Z,116.20
2018-11-11T05:53:19.128Z,117.37
2018-11-11T05:55:47.900Z,112.70
2018-11-11T05:58:18.539Z,106.83
2018-11-11T06:00:51.568Z,111.07
2018-11-11T06:03:24.469Z,110.80
2018-11-11T06:05:53.357Z,103.27
2018-11-11T06:08:23.036Z,109.23
2018-11-11T06:10:53.139Z,101.23
2018-11-11T06:13:22.145Z,114.97
2018-11-11T06:15:53.611Z,105.70
2018-11-11T06:18:22.496Z,97.63
2018-11-11T06:20:52.854Z,106.77
2018-11-11T06:23:21.287Z,97.67
2018-11-11T06:25:50.247Z,93.80
2018-11-11T06:28:19.362Z,105.00
2018-11-11T06:30:49.078Z,95.50
2018-11-11T06:35:52.720Z,98.77
2018-11-11T06:38:22.833Z,104.57
2018-11-11T06:40:53.431Z,104.23
2018-11-11T06:43:22.281Z,105.97
2018-11-11T06:45:51.515Z,101.50
2018-11-11T06:48:20.896Z,104.37
2018-11-11T06:50:57.623Z,96.43
2018-11-11T06:53:28.287Z,101.70
2018-11-11T06:55:58.170Z,93.80
2018-11-11T06:58:34.356Z,105.53
2018-11-11T07:01:04.762Z,95.77
2018-11-11T07:03:47.758Z,96.30
2018-11-11T07:06:18.679Z,91.00
2018-11-11T07:08:52.370Z,89.27
2018-11-11T07:11:21.935Z,89.50
2018-11-11T07:13:50.672Z,93.57
2018-11-11T07:16:24.547Z,89.60
2018-11-11T07:18:55.348Z,87.57
2018-11-11T07:21:24.405Z,90.93
2018-11-11T07:23:55.927Z,86.67
2018-11-11T07:26:28.251Z,94.83
2018-11-11T07:31:34.672Z,87.50
2018-11-11T07:34:12.586Z,88.83
2018-11-11T07:36:43.069Z,88.17
2018-11-11T07:39:26.734Z,92.10
2018-11-11T07:41:56.929Z,89.10
2018-11-11T07:44:25.970Z,90.53
2018-11-11T07:46:56.370Z,83.97
2018-11-11T07:52:06.793Z,85.27
2018-11-11T07:54:35.630Z,85.93
2018-11-11T07:57:09.519Z,89.13
2018-11-11T07:59:44.230Z,82.03
2018-11-11T08:02:15.503Z,85.97
2018-11-11T08:04:46.860Z,84.63
2018-11-11T08:07:20.020Z,78.40
2018-11-11T08:09:51.962Z,87.53
2018-11-11T08:12:26.270Z,79.80
2018-11-11T08:14:57.887Z,89.83
2018-11-11T08:17:27.232Z,80.70
2018-11-11T08:19:57.106Z,85.17
2018-11-11T08:22:27.174Z,87.17
2018-11-11T08:24:57.358Z,85.47
2018-11-11T08:27:34.716Z,85.27
2018-11-11T08:33:07.402Z,75.70
2018-11-11T08:35:46.124Z,86.90
2018-11-11T08:38:16.401Z,85.43
2018-11-11T08:41:00.930Z,94.13
2018-11-11T08:46:18.834Z,92.60
2018-11-11T08:49:13.361Z,95.70
2018-11-11T08:51:46.620Z,88.67
2018-11-11T08:54:19.100Z,97.43
2018-11-11T08:56:48.451Z,96.93
2018-11-11T08:59:18.315Z,100.87
2018-11-11T09:01:55.769Z,107.03
2018-11-11T09:07:05.511Z,111.27
2018-11-11T09:09:36.519Z,102.13
2018-11-11T09:12:09.510Z,100.27
2018-11-11T09:14:40.245Z,111.30
2018-11-11T09:17:13.285Z,101.10
2018-11-11T09:19:51.937Z,107.50
2018-11-11T09:22:30.917Z,109.37
2018-11-11T09:25:09.065Z,116.33
2018-11-11T09:30:24.828Z,128.53
2018-11-11T09:32:54.323Z,111.67
2018-11-11T09:35:27.731Z,117.30
2018-11-11T09:38:08.579Z,113.10
2018-11-11T09:43:17.997Z,111.53
2018-11-11T09:48:45.613Z,103.63
2018-11-11T09:51:26.607Z,113.93
2018-11-11T09:58:10.988Z,110.77
2018-11-11T10:06:25.716Z,99.10
2018-11-11T10:11:57.975Z,97.27
2018-11-11T10:14:36.775Z,92.57
2018-11-11T10:24:01.277Z,89.83
2018-11-11T10:29:37.342Z,96.03
2018-11-11T10:32:21.227Z,95.57
2018-11-11T10:34:54.215Z,106.00
2018-11-11T10:37:30.254Z,104.97
2018-11-11T10:40:09.195Z,107.67
2018-11-11T10:42:53.569Z,118.93
2018-11-11T10:48:25.244Z,124.67
2018-11-11T10:51:02.155Z,131.20
2018-11-11T10:53:47.317Z,120.27
2018-11-11T10:59:04.907Z,121.40
2018-11-11T11:01:39.343Z,124.80
2018-11-11T11:04:08.584Z,125.93
2018-11-11T11:09:45.763Z,110.67
2018-11-11T11:12:14.572Z,114.83
2018-11-11T11:14:43.363Z,109.30
2018-11-11T11:17:13.444Z,111.23
2018-11-11T11:19:51.363Z,104.20
2018-11-11T11:22:21.252Z,101.87
2018-11-11T11:24:51.522Z,85.40
2018-11-11T11:27:20.856Z,86.83
2018-11-11T11:29:49.420Z,86.13
2018-11-11T11:32:20.503Z,84.57
2018-11-11T11:34:49.199Z,83.23
2018-11-11T11:37:18.360Z,80.53
2018-11-11T11:40:15.538Z,76.07
2018-11-11T11:42:44.061Z,72.43
2018-11-11T11:45:30.020Z,76.03
2018-11-11T11:47:59.389Z,70.30
2018-11-11T11:50:54.554Z,67.70
2018-11-11T11:53:23.649Z,68.50
2018-11-11T11:55:58.051Z,62.03
2018-11-11T12:01:06.606Z,58.57
2018-11-11T12:03:35.411Z,57.97
2018-11-11T12:06:04.972Z,59.93
2018-11-11T12:08:39.181Z,58.67
2018-11-11T12:11:14.225Z,56.87
2018-11-11T12:13:44.014Z,52.80
2018-11-11T12:16:14.981Z,58.07
2018-11-11T12:18:44.520Z,54.90
2018-11-11T12:21:23.382Z,56.30
2018-11-11T12:23:53.398Z,54.70
2018-11-11T12:26:29.150Z,54.47
2018-11-11T12:29:03.975Z,49.93
2018-11-11T12:34:26.466Z,51.40
2018-11-11T12:40:07.197Z,51.60
2018-11-11T12:42:42.258Z,53.43
2018-11-11T12:45:12.492Z,51.43
2018-11-11T12:48:01.096Z,51.60
2018-11-11T12:50:44.595Z,53.10
2018-11-11T12:58:53.212Z,50.97
2018-11-11T13:12:28.194Z,47.93
2018-11-11T13:15:00.873Z,52.53
2018-11-11T13:17:34.687Z,52.63
2018-11-11T13:23:49.867Z,55.77
2018-11-11T13:28:53.367Z,50.53
2018-11-11T13:31:25.065Z,50.57
2018-11-11T13:33:58.795Z,53.20
2018-11-11T13:39:04.899Z,51.27
2018-11-11T13:41:33.608Z,50.70
2018-11-11T13:44:01.975Z,51.60
2018-11-11T13:46:32.040Z,59.70
2018-11-11T13:49:04.777Z,51.50
2018-11-11T13:51:34.408Z,50.07
2018-11-11T13:54:04.694Z,49.87
2018-11-11T13:56:33.600Z,53.27
2018-11-11T13:59:03.082Z,51.37
2018-11-11T14:01:31.763Z,51.53
2018-11-11T14:04:04.000Z,51.30
2018-11-11T14:06:33.090Z,50.23
2018-11-11T14:09:02.015Z,51.20
2018-11-11T14:11:33.868Z,49.33
2018-11-11T14:17:03.748Z,49.97
2018-11-11T14:19:35.388Z,51.77
2018-11-11T14:22:06.107Z,55.57
2018-11-11T14:24:37.575Z,54.83
2018-11-11T14:35:45.447Z,54.27
2018-11-11T14:46:51.205Z,50.80
2018-11-11T14:52:04.537Z,51.47
2018-11-11T14:54:39.972Z,54.00
2018-11-11T15:03:15.763Z,54.20
2018-11-11T15:11:30.355Z,55.17
2018-11-11T15:14:11.571Z,51.77
2018-11-11T15:16:49.737Z,53.03
2018-11-11T15:19:31.778Z,51.97
2018-11-11T15:22:06.711Z,56.50
2018-11-11T15:24:41.742Z,60.80
2018-11-11T15:27:20.587Z,57.47
2018-11-11T15:30:04.165Z,57.87
2018-11-11T15:35:17.812Z,60.00
2018-11-11T15:37:54.516Z,58.43
2018-11-11T15:40:32.686Z,62.33
2018-11-11T15:43:08.313Z,55.90
2018-11-11T15:45:44.415Z,56.07
2018-11-11T15:48:14.300Z,58.10
2018-11-11T15:51:14.908Z,61.40
2018-11-11T16:18:31.790Z,45.03
2018-11-11T16:24:12.197Z,50.60
2018-11-11T16:26:53.306Z,47.67
2018-11-11T16:29:37.492Z,48.10
2018-11-11T16:32:26.217Z,48.80
2018-11-11T16:35:05.943Z,50.33
2018-11-11T16:40:49.445Z,54.73
2018-11-11T16:43:29.089Z,49.40
2018-11-11T16:46:09.014Z,47.20
2018-11-11T16:52:04.171Z,53.27
2018-11-11T16:57:24.669Z,51.50
2018-11-11T17:02:53.519Z,42.93
2018-11-11T17:08:29.048Z,42.13
2018-11-11T17:17:29.627Z,42.30
2018-11-11T17:20:12.377Z,40.13
2018-11-11T17:26:15.988Z,41.13
2018-11-11T17:31:44.474Z,38.37
2018-11-11T17:34:22.990Z,36.30
2018-11-11T17:36:54.884Z,42.43
2018-11-11T17:43:43.246Z,42.30
2018-11-11T17:46:24.183Z,41.33
2018-11-11T17:51:38.460Z,53.60
2018-11-11T17:54:09.912Z,38.90
2018-11-11T17:56:42.843Z,39.37
2018-11-11T18:01:52.527Z,41.03
2018-11-11T18:07:13.179Z,38.03
2018-11-11T18:09:44.389Z,39.77
2018-11-11T18:12:23.616Z,32.20
2018-11-11T18:20:47.513Z,37.67
2018-11-11T18:23:23.349Z,36.07
2018-11-11T18:26:00.506Z,32.57
2018-11-11T18:31:20.591Z,31.43
2018-11-11T18:36:52.920Z,32.23
2018-11-11T18:42:31.437Z,31.33
2018-11-11T18:51:09.607Z,28.27
2018-11-11T18:53:49.119Z,28.97
2018-11-11T19:02:44.212Z,27.97
2018-11-11T19:08:42.020Z,26.03
2018-11-11T19:11:29.330Z,26.93
2018-11-11T19:22:59.139Z,28.00
2018-11-11T19:28:19.670Z,26.00
2018-11-11T19:36:26.500Z,22.67
2018-11-11T19:38:59.092Z,22.53
2018-11-11T19:41:38.961Z,25.07
2018-11-11T19:44:10.219Z,21.80
2018-11-11T19:46:43.271Z,23.23
2018-11-11T19:49:16.047Z,22.70
2018-11-11T19:51:48.608Z,30.40
2018-11-11T19:54:18.599Z,21.77
2018-11-11T19:56:48.822Z,22.67
2018-11-11T19:59:37.001Z,22.80
2018-11-11T20:10:16.823Z,25.17
2018-11-11T20:12:50.141Z,27.03
2018-11-11T20:15:34.516Z,28.37
2018-11-11T20:18:06.467Z,25.13
2018-11-11T20:20:48.548Z,25.17
2018-11-11T20:23:19.147Z,25.37
2018-11-11T20:25:58.273Z,25.27
2018-11-11T20:28:29.471Z,25.23
2018-11-11T20:31:15.601Z,24.73
2018-11-11T20:33:48.026Z,25.83
2018-11-11T20:36:23.808Z,26.13
2018-11-11T20:38:54.927Z,25.10
2018-11-11T20:41:26.382Z,25.67
2018-11-11T20:43:58.915Z,23.83
2018-11-11T20:46:29.199Z,25.57
2018-11-11T20:49:00.828Z,26.13
2018-11-11T20:51:33.659Z,23.93
2018-11-11T20:54:02.132Z,23.10
2018-11-11T20:56:30.516Z,25.23
2018-11-11T20:58:59.194Z,26.00
2018-11-11T21:01:27.834Z,25.67
2018-11-11T21:04:02.124Z,24.03
2018-11-11T21:06:31.601Z,25.00
2018-11-11T21:09:12.118Z,25.67
2018-11-11T21:11:41.098Z,22.40
2018-11-11T21:14:09.818Z,21.87
2018-11-11T21:16:38.165Z,26.13
2018-11-11T21:19:20.896Z,24.30
2018-11-11T21:21:49.271Z,26.80
2018-11-11T21:24:18.106Z,23.20
2018-11-11T21:26:46.745Z,23.83
2018-11-11T21:29:16.455Z,21.80
2018-11-11T21:34:21.873Z,23.20
2018-11-11T21:36:51.494Z,25.10
2018-11-11T21:39:20.623Z,23.70
2018-11-11T21:41:49.611Z,22.67
2018-11-11T21:44:17.930Z,22.17
2018-11-11T21:46:46.522Z,21.33
2018-11-11T21:49:15.930Z,20.50
2018-11-11T21:51:45.372Z,21.80
2018-11-11T21:54:14.766Z,22.03
2018-11-11T21:56:45.046Z,20.93
2018-11-11T21:59:18.570Z,20.23
2018-11-11T22:01:46.878Z,19.93
2018-11-11T22:04:15.881Z,21.37
2018-11-11T22:06:44.393Z,21.27
2018-11-11T22:09:13.101Z,20.13
2018-11-11T22:11:41.828Z,20.53
2018-11-11T22:14:10.236Z,20.67
2018-11-11T22:16:38.763Z,18.67
2018-11-11T22:19:07.556Z,19.77
2018-11-11T22:21:35.911Z,19.83
2018-11-11T22:24:05.210Z,18.20
2018-11-11T22:26:34.024Z,16.47
2018-11-11T22:29:03.279Z,17.17
2018-11-11T22:31:31.670Z,19.97
2018-11-11T22:34:00.126Z,17.87
2018-11-11T22:36:28.458Z,17.40
2018-11-11T22:38:57.691Z,19.30
2018-11-11T22:41:26.115Z,20.73
2018-11-11T22:44:00.311Z,19.70
2018-11-11T22:46:28.856Z,19.13
2018-11-11T22:49:00.297Z,19.97
2018-11-11T22:51:28.638Z,22.53
2018-11-11T22:53:57.003Z,22.47
2018-11-11T22:56:25.387Z,20.20
2018-11-11T22:58:53.691Z,21.67
2018-11-11T23:01:22.577Z,24.53
2018-11-11T23:03:51.322Z,19.33
2018-11-11T23:06:19.567Z,23.20
2018-11-11T23:08:48.378Z,19.97
2018-11-11T23:11:17.251Z,24.20
2018-11-11T23:13:45.542Z,22.33
2018-11-11T23:16:13.911Z,21.30
2018-11-11T23:18:42.140Z,21.57
2018-11-11T23:21:11.519Z,22.63
2018-11-11T23:23:39.816Z,21.83
2018-11-11T23:26:08.283Z,23.40
2018-11-11T23:28:36.643Z,23.70
2018-11-11T23:31:05.352Z,23.17
2018-11-11T23:33:33.811Z,24.83
2018-11-11T23:36:02.526Z,22.27
2018-11-11T23:38:30.867Z,21.50
2018-11-11T23:41:00.101Z,23.80
2018-11-11T23:43:28.943Z,21.57
2018-11-11T23:45:57.243Z,25.60
2018-11-11T23:48:25.562Z,25.43
2018-11-11T23:51:04.184Z,24.43
2018-11-11T23:53:32.980Z,26.43
2018-11-11T23:56:01.915Z,23.57
2018-11-11T23:58:30.180Z,25.50
